sensor_id;sensor_type;location;lat;lon;timestamp;pressure;altitude;pressure_sealevel;temperature;humidity
81608;BME280;71022;48.122;11.576;2024-01-27T00:00:34;97146.44;;;5.12;69.54
81608;BME280;71022;48.122;11.576;2024-01-27T00:03:02;97147.50;;;5.16;68.84
81608;BME280;71022;48.122;11.576;2024-01-27T00:05:29;97146.94;;;5.19;69.36
81608;BME280;71022;48.122;11.576;2024-01-27T00:07:58;97149.06;;;5.27;69.12
81608;BME280;71022;48.122;11.576;2024-01-27T00:10:25;97153.84;;;5.45;69.06
81608;BME280;71022;48.122;11.576;2024-01-27T00:12:52;97152.41;;;5.57;68.36
81608;BME280;71022;48.122;11.576;2024-01-27T00:15:19;97158.22;;;5.46;68.45
81608;BME280;71022;48.122;11.576;2024-01-27T00:17:50;97158.19;;;5.51;68.26
81608;BME280;71022;48.122;11.576;2024-01-27T00:20:18;97152.31;;;5.34;68.53
81608;BME280;71022;48.122;11.576;2024-01-27T00:22:46;97146.88;;;5.29;68.01
81608;BME280;71022;48.122;11.576;2024-01-27T00:25:14;97135.03;;;5.05;69.79
81608;BME280;71022;48.122;11.576;2024-01-27T00:27:41;97135.03;;;5.05;70.08
81608;BME280;71022;48.122;11.576;2024-01-27T00:30:08;97128.25;;;4.97;69.73
81608;BME280;71022;48.122;11.576;2024-01-27T00:32:38;97135.97;;;4.80;71.00
81608;BME280;71022;48.122;11.576;2024-01-27T00:35:07;97131.41;;;4.65;71.33
81608;BME280;71022;48.122;11.576;2024-01-27T00:37:35;97135.22;;;4.64;71.38
81608;BME280;71022;48.122;11.576;2024-01-27T00:40:03;97140.06;;;4.77;72.61
81608;BME280;71022;48.122;11.576;2024-01-27T00:42:30;97127.44;;;4.96;71.67
81608;BME280;71022;48.122;11.576;2024-01-27T00:44:57;97129.13;;;4.92;71.09
81608;BME280;71022;48.122;11.576;2024-01-27T00:47:24;97137.81;;;4.94;71.16
81608;BME280;71022;48.122;11.576;2024-01-27T00:49:52;97142.75;;;4.82;71.70
81608;BME280;71022;48.122;11.576;2024-01-27T00:52:21;97136.47;;;4.87;71.15
81608;BME280;71022;48.122;11.576;2024-01-27T00:54:48;97135.72;;;4.76;71.00
81608;BME280;71022;48.122;11.576;2024-01-27T00:57:15;97142.84;;;4.62;71.31
81608;BME280;71022;48.122;11.576;2024-01-27T00:59:43;97136.25;;;4.78;70.64
81608;BME280;71022;48.122;11.576;2024-01-27T01:02:11;97132.22;;;4.61;71.10
81608;BME280;71022;48.122;11.576;2024-01-27T01:04:38;97135.22;;;4.64;71.59
81608;BME280;71022;48.122;11.576;2024-01-27T01:07:06;97141.78;;;4.58;71.84
81608;BME280;71022;48.122;11.576;2024-01-27T01:09:33;97146.38;;;4.68;71.13
81608;BME280;71022;48.122;11.576;2024-01-27T01:12:01;97149.06;;;4.73;71.31
81608;BME280;71022;48.122;11.576;2024-01-27T01:14:28;97156.06;;;4.84;71.43
81608;BME280;71022;48.122;11.576;2024-01-27T01:16:55;97152.13;;;5.15;70.74
81608;BME280;71022;48.122;11.576;2024-01-27T01:19:22;97154.59;;;5.12;69.84
81608;BME280;71022;48.122;11.576;2024-01-27T01:21:50;97158.84;;;5.33;69.10
81608;BME280;71022;48.122;11.576;2024-01-27T01:24:17;97141.97;;;5.26;69.20
81608;BME280;71022;48.122;11.576;2024-01-27T01:26:44;97146.56;;;5.35;68.81
81608;BME280;71022;48.122;11.576;2024-01-27T01:29:12;97158.88;;;5.23;69.31
81608;BME280;71022;48.122;11.576;2024-01-27T01:31:42;97162.09;;;5.35;68.71
81608;BME280;71022;48.122;11.576;2024-01-27T01:34:09;97164.34;;;5.23;68.48
81608;BME280;71022;48.122;11.576;2024-01-27T01:36:37;97170.81;;;5.37;68.31
81608;BME280;71022;48.122;11.576;2024-01-27T01:39:05;97158.19;;;5.07;68.86
81608;BME280;71022;48.122;11.576;2024-01-27T01:41:32;97163.00;;;4.51;70.67
81608;BME280;71022;48.122;11.576;2024-01-27T01:43:59;97167.88;;;4.64;70.42
81608;BME280;71022;48.122;11.576;2024-01-27T01:46:26;97178.25;;;4.52;70.94
81608;BME280;71022;48.122;11.576;2024-01-27T01:48:54;97171.16;;;4.51;71.24
81608;BME280;71022;48.122;11.576;2024-01-27T01:51:22;97178.84;;;4.39;71.17
81608;BME280;71022;48.122;11.576;2024-01-27T01:53:49;97175.56;;;4.22;71.71
81608;BME280;71022;48.122;11.576;2024-01-27T01:56:17;97173.94;;;4.26;71.33
81608;BME280;71022;48.122;11.576;2024-01-27T01:58:44;97176.66;;;4.16;71.94
81608;BME280;71022;48.122;11.576;2024-01-27T02:01:12;97183.75;;;4.27;71.03
81608;BME280;71022;48.122;11.576;2024-01-27T02:03:39;97187.53;;;4.26;71.37
81608;BME280;71022;48.122;11.576;2024-01-27T02:06:07;97179.34;;;4.41;70.59
81608;BME280;71022;48.122;11.576;2024-01-27T02:08:34;97182.09;;;4.26;71.05
81608;BME280;71022;48.122;11.576;2024-01-27T02:11:01;97191.63;;;4.18;70.96
81608;BME280;71022;48.122;11.576;2024-01-27T02:13:29;97200.56;;;4.44;70.64
81608;BME280;71022;48.122;11.576;2024-01-27T02:15:57;97203.03;;;4.35;71.14
81608;BME280;71022;48.122;11.576;2024-01-27T02:18:24;97207.09;;;4.28;71.08
81608;BME280;71022;48.122;11.576;2024-01-27T02:20:51;97206.59;;;4.21;70.76
81608;BME280;71022;48.122;11.576;2024-01-27T02:23:19;97204.94;;;3.95;71.42
81608;BME280;71022;48.122;11.576;2024-01-27T02:25:46;97200.34;;;4.10;70.98
81608;BME280;71022;48.122;11.576;2024-01-27T02:28:13;97202.25;;;4.05;70.98
81608;BME280;71022;48.122;11.576;2024-01-27T02:30:40;97209.84;;;4.18;70.89
81608;BME280;71022;48.122;11.576;2024-01-27T02:33:07;97212.00;;;4.26;70.21
81608;BME280;71022;48.122;11.576;2024-01-27T02:35:35;97208.75;;;3.88;70.87
81608;BME280;71022;48.122;11.576;2024-01-27T02:38:02;97206.59;;;3.80;71.02
81608;BME280;71022;48.122;11.576;2024-01-27T02:40:29;97201.16;;;3.80;71.45
81608;BME280;71022;48.122;11.576;2024-01-27T02:42:57;97202.78;;;4.07;71.29
81608;BME280;71022;48.122;11.576;2024-01-27T02:45:24;97207.94;;;4.08;70.63
81608;BME280;71022;48.122;11.576;2024-01-27T02:47:51;97196.81;;;4.15;70.33
81608;BME280;71022;48.122;11.576;2024-01-27T02:50:18;97202.50;;;4.13;69.57
81608;BME280;71022;48.122;11.576;2024-01-27T02:52:45;97204.94;;;4.10;70.12
81608;BME280;71022;48.122;11.576;2024-01-27T02:55:13;97212.31;;;4.14;69.98
81608;BME280;71022;48.122;11.576;2024-01-27T02:57:40;97204.97;;;4.15;70.22
81608;BME280;71022;48.122;11.576;2024-01-27T03:00:08;97204.13;;;4.09;70.04
81608;BME280;71022;48.122;11.576;2024-01-27T03:02:36;97214.19;;;3.99;70.34
81608;BME280;71022;48.122;11.576;2024-01-27T03:05:03;97212.28;;;4.09;70.04
81608;BME280;71022;48.122;11.576;2024-01-27T03:07:31;97216.66;;;4.05;70.07
81608;BME280;71022;48.122;11.576;2024-01-27T03:09:58;97220.19;;;4.11;69.71
81608;BME280;71022;48.122;11.576;2024-01-27T03:12:25;97220.19;;;3.96;70.57
81608;BME280;71022;48.122;11.576;2024-01-27T03:14:52;97224.50;;;3.91;71.35
81608;BME280;71022;48.122;11.576;2024-01-27T03:17:20;97215.53;;;3.86;70.95
81608;BME280;71022;48.122;11.576;2024-01-27T03:19:47;97218.00;;;3.82;71.33
81608;BME280;71022;48.122;11.576;2024-01-27T03:22:15;97227.25;;;3.86;71.68
81608;BME280;71022;48.122;11.576;2024-01-27T03:24:43;97224.53;;;3.81;71.81
81608;BME280;71022;48.122;11.576;2024-01-27T03:27:10;97226.41;;;3.86;71.79
81608;BME280;71022;48.122;11.576;2024-01-27T03:29:37;97236.47;;;3.85;71.25
81608;BME280;71022;48.122;11.576;2024-01-27T03:32:05;97239.75;;;3.87;71.01
81608;BME280;71022;48.122;11.576;2024-01-27T03:34:32;97242.19;;;3.89;71.95
81608;BME280;71022;48.122;11.576;2024-01-27T03:37:00;97249.53;;;3.94;70.73
81608;BME280;71022;48.122;11.576;2024-01-27T03:39:27;97252.28;;;4.09;71.08
81608;BME280;71022;48.122;11.576;2024-01-27T03:41:54;97252.28;;;4.09;70.54
81608;BME280;71022;48.122;11.576;2024-01-27T03:44:21;97258.78;;;4.03;70.91
81608;BME280;71022;48.122;11.576;2024-01-27T03:46:48;97265.31;;;4.22;69.49
81608;BME280;71022;48.122;11.576;2024-01-27T03:49:16;97269.63;;;3.92;70.35
81608;BME280;71022;48.122;11.576;2024-01-27T03:51:43;97272.03;;;3.74;71.53
81608;BME280;71022;48.122;11.576;2024-01-27T03:54:10;97273.16;;;3.83;71.71
81608;BME280;71022;48.122;11.576;2024-01-27T03:56:40;97275.34;;;3.76;71.95
81608;BME280;71022;48.122;11.576;2024-01-27T03:59:08;97275.63;;;3.89;70.69
81608;BME280;71022;48.122;11.576;2024-01-27T04:01:36;97276.69;;;3.83;70.86
81608;BME280;71022;48.122;11.576;2024-01-27T04:04:03;97274.25;;;3.82;71.29
81608;BME280;71022;48.122;11.576;2024-01-27T04:06:36;97275.03;;;3.72;71.45
81608;BME280;71022;48.122;11.576;2024-01-27T04:09:04;97278.84;;;3.71;71.95
81608;BME280;71022;48.122;11.576;2024-01-27T04:11:31;97268.50;;;3.73;71.82
81608;BME280;71022;48.122;11.576;2024-01-27T04:13:59;97278.31;;;3.74;71.59
81608;BME280;71022;48.122;11.576;2024-01-27T04:16:26;97284.81;;;3.73;71.57
81608;BME280;71022;48.122;11.576;2024-01-27T04:18:53;97278.84;;;3.71;71.56
81608;BME280;71022;48.122;11.576;2024-01-27T04:21:21;97279.91;;;3.60;71.70
81608;BME280;71022;48.122;11.576;2024-01-27T04:23:48;97275.88;;;3.73;71.85
81608;BME280;71022;48.122;11.576;2024-01-27T04:26:16;97277.75;;;3.77;71.53
81608;BME280;71022;48.122;11.576;2024-01-27T04:28:43;97278.31;;;3.74;71.16
81608;BME280;71022;48.122;11.576;2024-01-27T04:31:10;97284.31;;;3.81;70.70
81608;BME280;71022;48.122;11.576;2024-01-27T04:33:37;97283.19;;;3.82;71.45
81608;BME280;71022;48.122;11.576;2024-01-27T04:36:05;97284.28;;;3.71;71.23
81608;BME280;71022;48.122;11.576;2024-01-27T04:38:33;97278.31;;;3.74;71.37
81608;BME280;71022;48.122;11.576;2024-01-27T04:41:01;97286.97;;;3.66;71.46
81608;BME280;71022;48.122;11.576;2024-01-27T04:43:29;97295.63;;;3.53;72.13
81608;BME280;71022;48.122;11.576;2024-01-27T04:45:56;97294.31;;;3.61;72.26
81608;BME280;71022;48.122;11.576;2024-01-27T04:48:23;97288.59;;;3.52;71.93
81608;BME280;71022;48.122;11.576;2024-01-27T04:50:50;97289.66;;;3.51;72.27
81608;BME280;71022;48.122;11.576;2024-01-27T04:53:18;97291.31;;;3.52;72.37
81608;BME280;71022;48.122;11.576;2024-01-27T04:55:45;97293.50;;;3.60;72.10
81608;BME280;71022;48.122;11.576;2024-01-27T04:58:12;97286.97;;;3.61;72.22
81608;BME280;71022;48.122;11.576;2024-01-27T05:00:39;97287.78;;;3.57;71.67
81608;BME280;71022;48.122;11.576;2024-01-27T05:03:07;97292.91;;;3.53;72.06
81608;BME280;71022;48.122;11.576;2024-01-27T05:05:41;97296.47;;;3.59;71.83
81608;BME280;71022;48.122;11.576;2024-01-27T05:08:09;97301.06;;;3.48;72.54
81608;BME280;71022;48.122;11.576;2024-01-27T05:10:36;97314.69;;;3.63;71.75
81608;BME280;71022;48.122;11.576;2024-01-27T05:13:03;97311.44;;;3.61;71.75
81608;BME280;71022;48.122;11.576;2024-01-27T05:15:31;97310.84;;;3.54;72.51
81608;BME280;71022;48.122;11.576;2024-01-27T05:17:58;97319.53;;;3.46;72.21
81608;BME280;71022;48.122;11.576;2024-01-27T05:20:26;97313.75;;;3.38;73.04
81608;BME280;71022;48.122;11.576;2024-01-27T05:22:53;97318.41;;;3.37;72.75
81608;BME280;71022;48.122;11.576;2024-01-27T05:25:20;97314.09;;;3.46;72.41
81608;BME280;71022;48.122;11.576;2024-01-27T05:27:47;97314.34;;;3.50;72.48
81608;BME280;71022;48.122;11.576;2024-01-27T05:30:15;97329.34;;;3.57;71.94
81608;BME280;71022;48.122;11.576;2024-01-27T05:32:43;97331.50;;;3.55;72.36
81608;BME280;71022;48.122;11.576;2024-01-27T05:35:10;97328.75;;;3.50;72.79
81608;BME280;71022;48.122;11.576;2024-01-27T05:37:37;97334.47;;;3.49;72.89
81608;BME280;71022;48.122;11.576;2024-01-27T05:40:07;97340.97;;;3.43;73.25
81608;BME280;71022;48.122;11.576;2024-01-27T05:42:35;97348.88;;;3.49;72.41
81608;BME280;71022;48.122;11.576;2024-01-27T05:45:03;97343.69;;;3.48;72.25
81608;BME280;71022;48.122;11.576;2024-01-27T05:47:31;97343.38;;;3.34;73.45
81608;BME280;71022;48.122;11.576;2024-01-27T05:49:59;97345.78;;;3.30;73.02
81608;BME280;71022;48.122;11.576;2024-01-27T05:52:26;97348.50;;;3.35;72.82
81608;BME280;71022;48.122;11.576;2024-01-27T05:54:53;97353.63;;;3.27;73.49
81608;BME280;71022;48.122;11.576;2024-01-27T05:57:21;97358.59;;;3.40;72.95
81608;BME280;71022;48.122;11.576;2024-01-27T05:59:48;97352.81;;;3.26;73.04
81608;BME280;71022;48.122;11.576;2024-01-27T06:02:15;97361.75;;;3.22;73.79
81608;BME280;71022;48.122;11.576;2024-01-27T06:04:45;97365.56;;;3.21;73.68
81608;BME280;71022;48.122;11.576;2024-01-27T06:07:13;97367.22;;;3.27;73.76
81608;BME280;71022;48.122;11.576;2024-01-27T06:09:40;97374.22;;;3.23;73.54
81608;BME280;71022;48.122;11.576;2024-01-27T06:12:07;97372.09;;;3.25;73.99
81608;BME280;71022;48.122;11.576;2024-01-27T06:14:35;97367.97;;;3.17;74.23
81608;BME280;71022;48.122;11.576;2024-01-27T06:17:04;97370.50;;;3.34;73.24
81608;BME280;71022;48.122;11.576;2024-01-27T06:19:32;97377.63;;;3.45;72.69
81608;BME280;71022;48.122;11.576;2024-01-27T06:21:59;97379.22;;;3.41;72.99
81608;BME280;71022;48.122;11.576;2024-01-27T06:24:31;97384.66;;;3.41;73.29
81608;BME280;71022;48.122;11.576;2024-01-27T06:26:58;97379.81;;;3.48;73.04
81608;BME280;71022;48.122;11.576;2024-01-27T06:29:25;97387.59;;;3.34;73.34
81608;BME280;71022;48.122;11.576;2024-01-27T06:31:54;97386.28;;;3.37;73.11
81608;BME280;71022;48.122;11.576;2024-01-27T06:34:21;97381.84;;;3.26;73.29
81608;BME280;71022;48.122;11.576;2024-01-27T06:36:48;97385.91;;;3.23;73.48
81608;BME280;71022;48.122;11.576;2024-01-27T06:39:15;97380.19;;;3.20;73.73
81608;BME280;71022;48.122;11.576;2024-01-27T06:41:42;97391.56;;;3.17;74.17
81608;BME280;71022;48.122;11.576;2024-01-27T06:44:10;97385.34;;;3.16;74.26
81608;BME280;71022;48.122;11.576;2024-01-27T06:46:37;97389.97;;;3.16;74.19
81608;BME280;71022;48.122;11.576;2024-01-27T06:49:04;97387.25;;;3.21;73.95
81608;BME280;71022;48.122;11.576;2024-01-27T06:51:31;97386.66;;;3.14;74.08
81608;BME280;71022;48.122;11.576;2024-01-27T06:53:59;97382.38;;;3.18;74.24
81608;BME280;71022;48.122;11.576;2024-01-27T06:56:26;97388.84;;;3.12;74.68
81608;BME280;71022;48.122;11.576;2024-01-27T06:58:53;97389.13;;;3.15;73.67
81608;BME280;71022;48.122;11.576;2024-01-27T07:01:20;97386.03;;;3.02;74.52
81608;BME280;71022;48.122;11.576;2024-01-27T07:03:48;97399.16;;;3.15;74.14
81608;BME280;71022;48.122;11.576;2024-01-27T07:06:15;97393.75;;;3.15;74.04
81608;BME280;71022;48.122;11.576;2024-01-27T07:08:43;97394.97;;;3.44;73.16
81608;BME280;71022;48.122;11.576;2024-01-27T07:11:10;97401.59;;;3.58;72.96
81608;BME280;71022;48.122;11.576;2024-01-27T07:13:37;97392.94;;;3.66;72.31
81608;BME280;71022;48.122;11.576;2024-01-27T07:16:05;97395.34;;;3.63;72.09
81608;BME280;71022;48.122;11.576;2024-01-27T07:18:32;97398.31;;;3.56;72.96
81608;BME280;71022;48.122;11.576;2024-01-27T07:21:02;97403.19;;;3.54;72.80
81608;BME280;71022;48.122;11.576;2024-01-27T07:23:34;97411.84;;;3.46;72.91
81608;BME280;71022;48.122;11.576;2024-01-27T07:26:02;97403.66;;;3.41;73.33
81608;BME280;71022;48.122;11.576;2024-01-27T07:28:30;97402.66;;;3.57;73.40
81608;BME280;71022;48.122;11.576;2024-01-27T07:30:58;97411.88;;;3.56;72.74
81608;BME280;71022;48.122;11.576;2024-01-27T07:33:25;97410.81;;;3.52;72.39
81608;BME280;71022;48.122;11.576;2024-01-27T07:35:52;97413.59;;;3.72;72.54
81608;BME280;71022;48.122;11.576;2024-01-27T07:38:20;97400.84;;;3.73;72.10
81608;BME280;71022;48.122;11.576;2024-01-27T07:40:47;97401.78;;;3.47;72.42
81608;BME280;71022;48.122;11.576;2024-01-27T07:43:14;97403.88;;;3.34;73.19
81608;BME280;71022;48.122;11.576;2024-01-27T07:45:42;97414.59;;;3.51;72.86
81608;BME280;71022;48.122;11.576;2024-01-27T07:48:09;97417.22;;;3.36;73.40
81608;BME280;71022;48.122;11.576;2024-01-27T07:50:36;97408.53;;;3.34;73.39
81608;BME280;71022;48.122;11.576;2024-01-27T07:53:03;97410.75;;;3.47;73.09
81608;BME280;71022;48.122;11.576;2024-01-27T07:55:31;97415.19;;;3.58;73.24
81608;BME280;71022;48.122;11.576;2024-01-27T07:57:58;97417.84;;;3.53;73.38
81608;BME280;71022;48.122;11.576;2024-01-27T08:00:25;97411.84;;;3.46;73.38
81608;BME280;71022;48.122;11.576;2024-01-27T08:02:53;97420.66;;;3.73;72.42
81608;BME280;71022;48.122;11.576;2024-01-27T08:05:20;97412.50;;;3.73;72.50
81608;BME280;71022;48.122;11.576;2024-01-27T08:07:48;97422.28;;;3.64;72.45
81608;BME280;71022;48.122;11.576;2024-01-27T08:10:15;97419.03;;;3.72;72.31
81608;BME280;71022;48.122;11.576;2024-01-27T08:12:43;97422.84;;;3.76;72.28
81608;BME280;71022;48.122;11.576;2024-01-27T08:15:11;97416.34;;;3.82;72.10
81608;BME280;71022;48.122;11.576;2024-01-27T08:17:38;97416.88;;;3.79;72.56
81608;BME280;71022;48.122;11.576;2024-01-27T08:20:06;97418.63;;;4.06;71.65
81608;BME280;71022;48.122;11.576;2024-01-27T08:22:35;97421.06;;;4.12;71.50
81608;BME280;71022;48.122;11.576;2024-01-27T08:25:03;97423.56;;;4.29;71.38
81608;BME280;71022;48.122;11.576;2024-01-27T08:27:30;97418.19;;;4.64;69.72
81608;BME280;71022;48.122;11.576;2024-01-27T08:29:57;97426.09;;;4.86;68.85
81608;BME280;71022;48.122;11.576;2024-01-27T08:32:25;97430.69;;;5.31;67.77
81608;BME280;71022;48.122;11.576;2024-01-27T08:34:52;97422.44;;;5.61;66.60
81608;BME280;71022;48.122;11.576;2024-01-27T08:37:19;97430.78;;;5.95;65.36
81608;BME280;71022;48.122;11.576;2024-01-27T08:39:47;97431.44;;;6.31;64.57
81608;BME280;71022;48.122;11.576;2024-01-27T08:42:14;97427.50;;;6.52;63.19
81608;BME280;71022;48.122;11.576;2024-01-27T08:44:42;97437.22;;;6.68;63.23
81608;BME280;71022;48.122;11.576;2024-01-27T08:47:09;97441.56;;;6.69;63.05
81608;BME280;71022;48.122;11.576;2024-01-27T08:49:36;97444.34;;;6.64;61.92
81608;BME280;71022;48.122;11.576;2024-01-27T08:52:04;97429.84;;;7.02;62.19
81608;BME280;71022;48.122;11.576;2024-01-27T08:54:31;97429.91;;;7.26;61.20
81608;BME280;71022;48.122;11.576;2024-01-27T08:56:58;97438.75;;;7.47;61.04
81608;BME280;71022;48.122;11.576;2024-01-27T08:59:25;97434.66;;;7.73;60.06
81608;BME280;71022;48.122;11.576;2024-01-27T09:01:52;97437.75;;;7.90;59.62
81608;BME280;71022;48.122;11.576;2024-01-27T09:04:20;97440.56;;;7.85;59.57
81608;BME280;71022;48.122;11.576;2024-01-27T09:06:47;97439.84;;;7.98;58.90
81608;BME280;71022;48.122;11.576;2024-01-27T09:09:14;97437.50;;;8.10;58.57
81608;BME280;71022;48.122;11.576;2024-01-27T09:11:42;97433.28;;;7.18;59.22
81608;BME280;71022;48.122;11.576;2024-01-27T09:14:09;97436.97;;;7.03;59.87
81608;BME280;71022;48.122;11.576;2024-01-27T09:16:36;97450.97;;;6.53;61.43
81608;BME280;71022;48.122;11.576;2024-01-27T09:19:04;97445.72;;;7.00;61.34
81608;BME280;71022;48.122;11.576;2024-01-27T09:21:31;97446.88;;;6.94;60.32
81608;BME280;71022;48.122;11.576;2024-01-27T09:24:00;97448.56;;;6.85;60.42
81608;BME280;71022;48.122;11.576;2024-01-27T09:26:29;97443.16;;;6.75;60.99
81608;BME280;71022;48.122;11.576;2024-01-27T09:28:56;97447.59;;;6.71;60.53
81608;BME280;71022;48.122;11.576;2024-01-27T09:31:23;97446.34;;;5.89;61.95
81608;BME280;71022;48.122;11.576;2024-01-27T09:33:53;97452.97;;;6.37;62.82
81608;BME280;71022;48.122;11.576;2024-01-27T09:36:21;97454.47;;;6.15;61.63
81608;BME280;71022;48.122;11.576;2024-01-27T09:38:49;97458.97;;;5.60;63.69
81608;BME280;71022;48.122;11.576;2024-01-27T09:41:16;97454.34;;;5.61;62.63
81608;BME280;71022;48.122;11.576;2024-01-27T09:43:45;97453.03;;;5.28;63.83
81608;BME280;71022;48.122;11.576;2024-01-27T09:46:16;97466.66;;;5.08;64.21
81608;BME280;71022;48.122;11.576;2024-01-27T09:48:44;97459.84;;;5.00;65.42
81608;BME280;71022;48.122;11.576;2024-01-27T09:51:12;97468.81;;;5.16;65.02
81608;BME280;71022;48.122;11.576;2024-01-27T09:53:39;97472.09;;;4.92;65.11
81608;BME280;71022;48.122;11.576;2024-01-27T09:56:07;97473.72;;;5.19;64.38
81608;BME280;71022;48.122;11.576;2024-01-27T09:58:34;97472.09;;;5.08;65.25
81608;BME280;71022;48.122;11.576;2024-01-27T10:01:02;97470.75;;;5.10;65.32
81608;BME280;71022;48.122;11.576;2024-01-27T10:03:30;97468.84;;;4.95;64.89
81608;BME280;71022;48.122;11.576;2024-01-27T10:06:00;97467.16;;;5.35;63.61
81608;BME280;71022;48.122;11.576;2024-01-27T10:08:27;97477.22;;;5.70;63.77
81608;BME280;71022;48.122;11.576;2024-01-27T10:10:55;97479.94;;;5.59;63.85
81608;BME280;71022;48.122;11.576;2024-01-27T10:13:26;97473.53;;;6.09;62.10
81608;BME280;71022;48.122;11.576;2024-01-27T10:16:04;97479.44;;;6.37;60.75
81608;BME280;71022;48.122;11.576;2024-01-27T10:18:32;97479.56;;;6.60;60.45
81608;BME280;71022;48.122;11.576;2024-01-27T10:21:00;97477.88;;;6.16;62.00
81608;BME280;71022;48.122;11.576;2024-01-27T10:23:28;97478.25;;;5.94;62.69
81608;BME280;71022;48.122;11.576;2024-01-27T10:25:55;97468.25;;;6.33;61.68
81608;BME280;71022;48.122;11.576;2024-01-27T10:28:24;97459.50;;;6.36;60.53
81608;BME280;71022;48.122;11.576;2024-01-27T10:30:51;97456.53;;;5.48;61.51
81608;BME280;71022;48.122;11.576;2024-01-27T10:33:18;97455.44;;;5.44;61.47
81608;BME280;71022;48.122;11.576;2024-01-27T10:35:46;97454.06;;;5.47;61.39
81608;BME280;71022;48.122;11.576;2024-01-27T10:38:13;97456.81;;;5.52;61.82
81608;BME280;71022;48.122;11.576;2024-01-27T10:40:40;97460.09;;;5.24;61.97
81608;BME280;71022;48.122;11.576;2024-01-27T10:43:08;97460.66;;;5.31;63.73
81608;BME280;71022;48.122;11.576;2024-01-27T10:45:40;97462.34;;;6.16;70.99
81608;BME280;71022;48.122;11.576;2024-01-27T10:48:09;97452.00;;;7.35;58.14
81608;BME280;71022;48.122;11.576;2024-01-27T10:50:41;97446.69;;;7.14;57.22
81608;BME280;71022;48.122;11.576;2024-01-27T10:53:38;97450.31;;;6.66;58.72
81608;BME280;71022;48.122;11.576;2024-01-27T10:56:07;97442.88;;;6.38;57.90
81608;BME280;71022;48.122;11.576;2024-01-27T10:58:37;97447.22;;;6.44;58.38
81608;BME280;71022;48.122;11.576;2024-01-27T11:01:11;97434.59;;;6.53;58.49
81608;BME280;71022;48.122;11.576;2024-01-27T11:03:42;97441.06;;;6.67;58.15
81608;BME280;71022;48.122;11.576;2024-01-27T11:06:11;97427.91;;;6.69;57.57
81608;BME280;71022;48.122;11.576;2024-01-27T11:08:40;97428.53;;;6.61;57.61
81608;BME280;71022;48.122;11.576;2024-01-27T11:11:11;97424.19;;;6.94;56.90
81608;BME280;71022;48.122;11.576;2024-01-27T11:13:38;97423.00;;;7.05;56.07
81608;BME280;71022;48.122;11.576;2024-01-27T11:16:15;97420.84;;;7.02;56.71
81608;BME280;71022;48.122;11.576;2024-01-27T11:18:43;97422.47;;;7.03;56.91
81608;BME280;71022;48.122;11.576;2024-01-27T11:21:15;97420.94;;;7.26;56.28
81608;BME280;71022;48.122;11.576;2024-01-27T11:23:45;97419.09;;;7.45;55.86
81608;BME280;71022;48.122;11.576;2024-01-27T11:26:20;97414.25;;;7.37;55.62
81608;BME280;71022;48.122;11.576;2024-01-27T11:28:48;97405.69;;;7.19;55.63
81608;BME280;71022;48.122;11.576;2024-01-27T11:31:20;97405.09;;;6.55;56.33
81608;BME280;71022;48.122;11.576;2024-01-27T11:33:50;97419.31;;;6.57;56.08
81608;BME280;71022;48.122;11.576;2024-01-27T11:36:23;97404.28;;;6.54;57.01
81608;BME280;71022;48.122;11.576;2024-01-27T11:38:53;97410.53;;;6.60;57.13
81608;BME280;71022;48.122;11.576;2024-01-27T11:41:28;97400.88;;;6.73;57.07
81608;BME280;71022;48.122;11.576;2024-01-27T11:43:57;97396.63;;;6.90;56.85
81608;BME280;71022;48.122;11.576;2024-01-27T11:46:26;97401.94;;;7.10;56.08
81608;BME280;71022;48.122;11.576;2024-01-27T11:48:54;97399.50;;;7.09;56.36
81608;BME280;71022;48.122;11.576;2024-01-27T11:51:21;97418.66;;;6.70;55.99
81608;BME280;71022;48.122;11.576;2024-01-27T11:53:51;97406.78;;;6.46;56.79
81608;BME280;71022;48.122;11.576;2024-01-27T11:56:18;97408.38;;;6.57;56.89
81608;BME280;71022;48.122;11.576;2024-01-27T11:58:46;97403.53;;;6.83;56.69
81608;BME280;71022;48.122;11.576;2024-01-27T12:01:16;97403.44;;;7.98;58.03
81608;BME280;71022;48.122;11.576;2024-01-27T12:03:43;97393.75;;;7.63;55.39
81608;BME280;71022;48.122;11.576;2024-01-27T12:06:12;97400.34;;;7.33;55.19
81608;BME280;71022;48.122;11.576;2024-01-27T12:08:42;97388.69;;;6.94;55.30
81608;BME280;71022;48.122;11.576;2024-01-27T12:11:16;97399.16;;;7.15;54.98
81608;BME280;71022;48.122;11.576;2024-01-27T12:13:49;97401.13;;;6.76;54.49
81608;BME280;71022;48.122;11.576;2024-01-27T12:16:16;97394.91;;;6.99;54.49
81608;BME280;71022;48.122;11.576;2024-01-27T12:18:45;97400.38;;;7.04;53.76
81608;BME280;71022;48.122;11.576;2024-01-27T12:21:12;97392.97;;;7.34;53.16
81608;BME280;71022;48.122;11.576;2024-01-27T12:23:53;97392.13;;;7.09;53.25
81608;BME280;71022;48.122;11.576;2024-01-27T12:26:28;97396.81;;;7.04;53.07
81608;BME280;71022;48.122;11.576;2024-01-27T12:28:56;97391.03;;;7.10;52.35
81608;BME280;71022;48.122;11.576;2024-01-27T12:31:25;97394.06;;;7.33;52.91
81608;BME280;71022;48.122;11.576;2024-01-27T12:33:56;97392.22;;;7.28;52.75
81608;BME280;71022;48.122;11.576;2024-01-27T12:36:26;97387.78;;;7.32;53.81
81608;BME280;71022;48.122;11.576;2024-01-27T12:39:01;97384.03;;;7.23;53.66
81608;BME280;71022;48.122;11.576;2024-01-27T12:41:30;97385.19;;;7.46;53.24
81608;BME280;71022;48.122;11.576;2024-01-27T12:44:01;97380.88;;;7.40;53.80
81608;BME280;71022;48.122;11.576;2024-01-27T12:46:29;97380.88;;;7.40;53.53
81608;BME280;71022;48.122;11.576;2024-01-27T12:48:56;97378.50;;;7.04;53.81
81608;BME280;71022;48.122;11.576;2024-01-27T12:51:24;97377.38;;;7.05;54.02
81608;BME280;71022;48.122;11.576;2024-01-27T12:53:51;97369.28;;;7.24;52.37
81608;BME280;71022;48.122;11.576;2024-01-27T12:56:19;97370.03;;;7.35;53.66
81608;BME280;71022;48.122;11.576;2024-01-27T12:58:46;97372.56;;;7.50;51.97
81608;BME280;71022;48.122;11.576;2024-01-27T13:01:16;97368.16;;;7.54;52.06
81608;BME280;71022;48.122;11.576;2024-01-27T13:03:44;97364.88;;;7.28;53.23